Time;durP1;ratioP1;P1;durP2;ratioP2;P2;SDS_P1;SDS_P2;PMS_P1;PMS_P2;Temp;Humidity;BMP_temperature;BMP_pressure;BME280_temperature;BME280_humidity;BME280_pressure;Samples;Min_cycle;Max_cycle;Signal;HPM_P1;HPM_P2
2022/01/31 00:00:23;;;;;;;7.80;2.50;;;21.40;44.80;;;;;;5075958;28;20032;-74
2022/01/31 00:02:49;;;;;;;10.60;2.70;;;21.30;44.70;;;;;;5098874;28;20559;-74
2022/01/31 00:05:15;;;;;;;8.50;2.38;;;21.30;44.80;;;;;;5086606;28;20043;-74
2022/01/31 00:07:41;;;;;;;10.27;2.47;;;21.30;44.80;;;;;;5076637;28;20040;-74
2022/01/31 00:10:10;;;;;;;10.35;2.25;;;21.30;44.80;;;;;;5074153;28;20083;-74
2022/01/31 00:12:49;;;;;;;9.30;2.85;;;21.40;44.90;;;;;;5106049;27;20048;-74
2022/01/31 00:15:15;;;;;;;10.30;2.40;;;21.30;44.90;;;;;;5074656;28;20094;-73
2022/01/31 00:17:41;;;;;;;11.30;2.45;;;21.30;44.80;;;;;;5063152;28;20085;-73
2022/01/31 00:20:07;;;;;;;9.13;2.63;;;21.30;44.90;;;;;;5083359;28;20071;-73
2022/01/31 00:22:32;;;;;;;7.72;2.13;;;21.30;44.80;;;;;;5079123;28;20036;-73
2022/01/31 00:24:58;;;;;;;7.97;2.15;;;21.30;44.90;;;;;;5085200;28;20067;-74
2022/01/31 00:27:23;;;;;;;8.57;2.47;;;21.30;44.80;;;;;;5076861;28;20136;-73
2022/01/31 00:29:49;;;;;;;10.00;2.38;;;21.30;44.80;;;;;;5072094;28;20134;-72
2022/01/31 00:32:15;;;;;;;6.68;2.20;;;21.30;44.80;;;;;;5069245;28;20048;-73
2022/01/31 00:34:40;;;;;;;8.45;2.60;;;21.30;44.80;;;;;;5082991;28;20051;-74
2022/01/31 00:37:06;;;;;;;7.45;2.45;;;21.40;44.90;;;;;;5083231;28;20651;-73
2022/01/31 00:39:35;;;;;;;7.78;2.38;;;21.30;44.90;;;;;;5082720;28;20051;-73
2022/01/31 00:42:02;;;;;;;11.82;2.20;;;21.30;44.80;;;;;;5080565;28;20040;-74
2022/01/31 00:44:37;;;;;;;9.90;2.38;;;21.30;44.80;;;;;;5084251;28;20134;-74
2022/01/31 00:47:15;;;;;;;11.02;2.45;;;21.30;44.80;;;;;;5079228;28;20127;-74
2022/01/31 00:49:48;;;;;;;7.03;2.17;;;21.30;44.80;;;;;;5085550;28;20048;-74
2022/01/31 00:52:14;;;;;;;8.90;2.92;;;21.30;44.90;;;;;;5083189;28;20097;-74
2022/01/31 00:54:39;;;;;;;7.78;2.28;;;21.30;44.80;;;;;;5083958;28;20040;-74
2022/01/31 00:57:05;;;;;;;9.27;2.60;;;21.30;44.80;;;;;;5074172;28;20582;-73
2022/01/31 00:59:30;;;;;;;8.07;2.42;;;21.30;44.80;;;;;;5084792;28;20039;-74
2022/01/31 01:01:56;;;;;;;10.68;2.42;;;21.30;44.80;;;;;;5082937;28;20048;-74
2022/01/31 01:04:22;;;;;;;6.65;2.30;;;21.40;44.80;;;;;;5067064;28;20523;-74
2022/01/31 01:06:47;;;;;;;9.25;2.55;;;21.40;44.80;;;;;;5085186;28;20044;-73
2022/01/31 01:09:13;;;;;;;7.50;2.30;;;21.40;44.90;;;;;;5082615;28;20495;-74
2022/01/31 01:11:39;;;;;;;8.35;2.60;;;21.40;44.90;;;;;;5076702;28;20385;-73
2022/01/31 01:14:05;;;;;;;5.43;2.00;;;21.30;44.80;;;;;;5075905;28;20043;-74
2022/01/31 01:16:31;;;;;;;8.05;2.15;;;21.30;44.90;;;;;;5073517;28;20066;-74
2022/01/31 01:18:56;;;;;;;7.05;2.35;;;21.40;45.00;;;;;;5081797;28;21454;-74
2022/01/31 01:21:22;;;;;;;7.75;2.45;;;21.40;45.00;;;;;;5111382;27;20412;-74
2022/01/31 01:23:47;;;;;;;5.07;2.13;;;21.40;44.90;;;;;;5074555;28;20058;-74
2022/01/31 01:26:13;;;;;;;6.32;1.98;;;21.40;44.90;;;;;;5078210;28;20047;-73
2022/01/31 01:28:39;;;;;;;7.03;2.40;;;21.40;44.90;;;;;;5083873;28;20123;-74
2022/01/31 01:31:04;;;;;;;5.13;2.10;;;21.40;44.90;;;;;;5079500;28;20116;-74
2022/01/31 01:33:37;;;;;;;7.80;2.33;;;21.40;44.90;;;;;;5079821;28;20043;-74
2022/01/31 01:36:04;;;;;;;5.63;1.83;;;21.40;44.90;;;;;;5076933;28;20065;-74
2022/01/31 01:38:30;;;;;;;7.45;2.53;;;21.40;44.90;;;;;;5081153;28;20570;-74
2022/01/31 01:40:59;;;;;;;7.65;2.55;;;21.40;44.90;;;;;;5077902;28;20522;-74
2022/01/31 01:43:25;;;;;;;;;;;21.40;44.90;;;;;;5083818;28;20036;-74
2022/01/31 01:45:52;;;;;;;7.50;2.25;;;21.40;44.90;;;;;;5059874;28;19942;-74
2022/01/31 01:48:18;;;;;;;7.27;2.20;;;21.40;44.80;;;;;;5081090;28;20126;-74
2022/01/31 01:50:44;;;;;;;8.57;2.30;;;21.40;44.80;;;;;;5080838;28;20150;-73
2022/01/31 01:53:12;;;;;;;8.73;2.20;;;21.40;44.80;;;;;;5109825;28;20062;-73
2022/01/31 01:55:37;;;;;;;10.07;1.90;;;21.40;44.80;;;;;;5110587;28;20119;-74
2022/01/31 01:58:05;;;;;;;9.20;2.25;;;21.40;44.80;;;;;;5084638;28;20131;-74
2022/01/31 02:00:49;;;;;;;7.28;2.03;;;21.40;44.80;;;;;;5074247;28;20048;-74
2022/01/31 02:03:14;;;;;;;7.60;2.17;;;21.40;44.90;;;;;;5079617;28;20055;-74
2022/01/31 02:05:40;;;;;;;9.38;2.55;;;21.40;44.80;;;;;;5079609;28;20411;-72
2022/01/31 02:08:06;;;;;;;6.80;2.13;;;21.40;44.80;;;;;;5081840;28;20052;-74
2022/01/31 02:10:32;;;;;;;6.57;1.98;;;21.40;44.90;;;;;;5081355;28;20036;-74
2022/01/31 02:13:07;;;;;;;5.07;1.80;;;21.40;44.90;;;;;;5115991;28;20044;-75
2022/01/31 02:15:33;;;;;;;7.75;2.15;;;21.40;45.00;;;;;;5110140;28;20044;-75
2022/01/31 02:17:58;;;;;;;5.88;1.90;;;21.40;44.90;;;;;;5117585;28;20047;-75
2022/01/31 02:20:24;;;;;;;6.10;1.90;;;21.40;44.90;;;;;;5068945;28;20048;-74
2022/01/31 02:22:50;;;;;;;7.50;1.98;;;21.40;44.90;;;;;;5093816;28;20059;-74
2022/01/31 02:25:15;;;;;;;4.88;1.80;;;21.40;45.00;;;;;;5082087;28;20519;-74
2022/01/31 02:27:42;;;;;;;5.03;2.08;;;21.40;45.10;;;;;;5078020;28;20646;-73
2022/01/31 02:30:13;;;;;;;5.45;1.90;;;21.40;44.90;;;;;;5069227;28;20067;-73
2022/01/31 02:32:39;;;;;;;4.95;1.85;;;21.40;44.90;;;;;;5080073;28;20086;-74
2022/01/31 02:35:06;;;;;;;5.53;1.50;;;21.50;44.90;;;;;;5076402;28;20495;-74
2022/01/31 02:37:33;;;;;;;7.57;2.00;;;21.40;44.30;;;;;;5078583;28;20071;-73
2022/01/31 02:39:58;;;;;;;6.78;2.00;;;21.40;45.00;;;;;;5077688;28;20098;-74
2022/01/31 02:42:24;;;;;;;5.03;1.85;;;21.50;45.00;;;;;;5082677;28;20045;-74
2022/01/31 02:44:50;;;;;;;5.38;1.67;;;21.50;45.00;;;;;;5084481;28;20040;-74
2022/01/31 02:47:23;;;;;;;7.05;1.85;;;21.40;44.90;;;;;;5121926;27;20427;-74
2022/01/31 02:49:55;;;;;;;5.57;2.00;;;21.50;44.90;;;;;;5114158;27;20056;-74
2022/01/31 02:52:20;;;;;;;3.97;1.60;;;21.50;45.00;;;;;;5072185;28;20044;-74
2022/01/31 02:54:46;;;;;;;4.90;1.52;;;21.40;44.90;;;;;;5111003;27;20055;-74
2022/01/31 02:57:12;;;;;;;6.38;2.00;;;21.50;44.90;;;;;;5109126;27;20040;-74
2022/01/31 02:59:38;;;;;;;5.57;1.95;;;21.50;44.90;;;;;;5119344;27;20036;-74
2022/01/31 03:02:05;;;;;;;3.38;1.70;;;21.50;45.00;;;;;;5081839;28;20535;-74
2022/01/31 03:04:31;;;;;;;4.18;1.58;;;21.40;44.90;;;;;;5081878;28;20040;-74
2022/01/31 03:06:56;;;;;;;5.68;1.60;;;21.50;45.00;;;;;;5087566;28;20708;-73
2022/01/31 03:09:22;;;;;;;4.63;1.70;;;21.50;45.00;;;;;;5079483;28;20052;-74
2022/01/31 03:11:48;;;;;;;4.20;1.50;;;21.50;45.00;;;;;;5075476;28;20040;-72
2022/01/31 03:14:16;;;;;;;5.13;1.80;;;21.50;45.00;;;;;;5084452;28;20036;-74
2022/01/31 03:16:44;;;;;;;3.22;1.35;;;21.50;45.00;;;;;;5120561;27;20063;-74
2022/01/31 03:19:09;;;;;;;4.32;1.67;;;21.40;44.90;;;;;;5060767;28;20720;-74
2022/01/31 03:21:35;;;;;;;4.50;1.70;;;21.50;45.00;;;;;;5113428;27;20049;-74
2022/01/31 03:24:01;;;;;;;4.90;2.00;;;21.50;45.00;;;;;;5084886;28;20044;-74
2022/01/31 03:26:27;;;;;;;3.95;1.45;;;21.50;45.00;;;;;;5119249;27;20051;-74
2022/01/31 03:28:53;;;;;;;3.65;1.60;;;21.50;45.00;;;;;;5083855;28;20059;-73
2022/01/31 03:31:21;;;;;;;4.32;1.77;;;21.50;45.00;;;;;;5086513;28;20117;-75
2022/01/31 03:33:47;;;;;;;4.47;1.65;;;21.50;45.00;;;;;;5086547;28;20632;-74
2022/01/31 03:36:13;;;;;;;2.95;1.50;;;21.50;45.00;;;;;;5080515;28;20040;-74
2022/01/31 03:38:41;;;;;;;2.30;1.33;;;21.50;45.00;;;;;;5086111;28;20040;-74
2022/01/31 03:41:08;;;;;;;3.33;1.40;;;21.50;45.00;;;;;;5117215;27;20045;-74
2022/01/31 03:43:33;;;;;;;3.78;1.33;;;21.50;45.00;;;;;;5087871;28;20454;-74
2022/01/31 03:45:59;;;;;;;3.58;1.48;;;21.50;45.00;;;;;;5066702;28;20530;-74
2022/01/31 03:48:27;;;;;;;4.00;2.00;;;21.50;45.00;;;;;;5087451;28;20112;-74
2022/01/31 03:50:53;;;;;;;3.20;1.25;;;21.50;45.00;;;;;;5077427;28;20122;-75
2022/01/31 03:53:19;;;;;;;4.20;1.38;;;21.50;45.00;;;;;;5083623;28;20115;-75
2022/01/31 03:55:45;;;;;;;5.80;1.40;;;21.50;45.00;;;;;;5066798;28;20052;-74
2022/01/31 03:58:10;;;;;;;2.97;1.45;;;21.50;45.00;;;;;;5065774;28;20036;-74
2022/01/31 04:00:36;;;;;;;2.58;1.20;;;21.50;45.00;;;;;;5077264;28;20614;-73
2022/01/31 04:03:01;;;;;;;3.90;1.58;;;21.50;45.00;;;;;;5085178;28;20398;-74
2022/01/31 04:05:27;;;;;;;2.72;1.20;;;21.50;45.10;;;;;;5077381;28;20532;-75
2022/01/31 04:07:52;;;;;;;3.55;1.52;;;21.40;45.00;;;;;;5080496;28;20093;-74
2022/01/31 04:10:18;;;;;;;3.95;1.30;;;21.50;45.00;;;;;;5075539;28;20051;-74
2022/01/31 04:12:44;;;;;;;2.88;1.15;;;21.50;45.10;;;;;;5076729;28;20052;-74
2022/01/31 04:15:10;;;;;;;4.05;1.45;;;21.50;45.10;;;;;;5084890;28;20063;-74
2022/01/31 04:17:37;;;;;;;4.75;1.50;;;21.50;45.10;;;;;;5084990;28;20040;-74
2022/01/31 04:20:10;;;;;;;4.40;1.42;;;21.50;45.10;;;;;;5102172;28;20112;-74
2022/01/31 04:22:42;;;;;;;4.18;1.30;;;21.50;45.00;;;;;;5084422;28;20403;-74
2022/01/31 04:25:17;;;;;;;3.75;1.33;;;21.50;45.10;;;;;;5080869;28;20039;-73
2022/01/31 04:27:50;;;;;;;3.38;1.17;;;21.50;45.00;;;;;;5085713;28;20079;-74
2022/01/31 04:30:16;;;;;;;5.03;1.38;;;21.50;45.00;;;;;;5078439;28;20066;-74
2022/01/31 04:32:41;;;;;;;4.93;1.30;;;21.50;45.00;;;;;;5075178;28;20123;-73
2022/01/31 04:35:07;;;;;;;3.75;1.35;;;21.60;45.10;;;;;;5085340;28;20131;-74
2022/01/31 04:37:33;;;;;;;3.10;1.30;;;21.60;45.10;;;;;;5111798;27;20045;-74
2022/01/31 04:39:58;;;;;;;2.88;1.20;;;21.50;45.10;;;;;;5082291;28;20044;-74
2022/01/31 04:42:25;;;;;;;3.15;1.15;;;21.60;45.10;;;;;;5083051;28;20086;-73
2022/01/31 04:44:53;;;;;;;4.72;1.48;;;21.60;45.10;;;;;;5078545;28;20059;-72
2022/01/31 04:47:19;;;;;;;;;;;21.60;45.10;;;;;;5115506;27;20461;-74
2022/01/31 04:49:44;;;;;;;3.92;1.27;;;21.60;45.20;;;;;;5085739;28;19924;-72
2022/01/31 04:52:10;;;;;;;3.42;1.40;;;21.60;45.10;;;;;;5084461;28;20543;-73
2022/01/31 04:54:35;;;;;;;4.60;1.45;;;21.60;45.10;;;;;;5111959;27;20781;-73
2022/01/31 04:57:01;;;;;;;2.90;1.15;;;21.50;45.10;;;;;;5082170;28;20067;-73
2022/01/31 04:59:27;;;;;;;2.65;1.20;;;21.60;45.10;;;;;;5083144;28;20028;-73
2022/01/31 05:01:53;;;;;;;4.32;1.27;;;21.50;45.10;;;;;;5083844;28;20051;-73
2022/01/31 05:04:18;;;;;;;3.88;1.20;;;21.50;45.10;;;;;;5081268;28;20040;-72
2022/01/31 05:06:46;;;;;;;3.92;1.42;;;21.60;45.10;;;;;;5085415;28;20048;-71
2022/01/31 05:09:12;;;;;;;4.18;1.35;;;21.60;45.10;;;;;;5083492;28;20040;-73
2022/01/31 05:11:38;;;;;;;2.25;0.93;;;21.60;45.10;;;;;;5083915;28;20106;-73
2022/01/31 05:14:03;;;;;;;2.88;1.35;;;21.60;45.20;;;;;;5081197;28;20593;-73
2022/01/31 05:16:29;;;;;;;4.25;1.15;;;21.50;45.10;;;;;;5079622;28;20474;-73
2022/01/31 05:18:54;;;;;;;4.53;1.40;;;21.60;45.10;;;;;;5073963;28;20399;-73
2022/01/31 05:21:20;;;;;;;4.57;1.20;;;21.60;45.20;;;;;;5067604;28;20039;-74
2022/01/31 05:23:48;;;;;;;3.58;1.20;;;21.60;45.20;;;;;;5073320;28;20123;-74
2022/01/31 05:26:15;;;;;;;4.28;1.25;;;21.60;45.20;;;;;;5082353;28;20514;-73
2022/01/31 05:28:40;;;;;;;3.97;1.55;;;21.60;45.20;;;;;;5074534;28;20547;-74
2022/01/31 05:31:07;;;;;;;3.88;1.30;;;21.60;45.20;;;;;;5079656;28;20119;-73
2022/01/31 05:33:33;;;;;;;3.75;1.20;;;21.60;45.20;;;;;;5116171;28;20472;-74
2022/01/31 05:35:58;;;;;;;4.07;1.40;;;21.60;46.00;;;;;;5075245;28;20190;-73
2022/01/31 05:38:24;;;;;;;5.10;1.50;;;21.50;45.10;;;;;;5106711;28;20500;-73
2022/01/31 05:40:50;;;;;;;4.68;1.30;;;21.50;45.10;;;;;;5073769;28;20731;-74
2022/01/31 05:43:16;;;;;;;4.43;1.20;;;21.60;45.20;;;;;;5080805;28;20123;-74
2022/01/31 05:45:42;;;;;;;3.83;1.42;;;21.60;45.20;;;;;;5084820;28;20048;-74
2022/01/31 05:48:08;;;;;;;4.18;1.00;;;21.60;45.20;;;;;;5082495;28;20048;-75
2022/01/31 05:50:34;;;;;;;2.92;1.23;;;21.60;45.20;;;;;;5079682;28;20036;-73
2022/01/31 05:52:59;;;;;;;2.88;0.90;;;21.60;45.20;;;;;;5082897;28;20040;-73
2022/01/31 05:55:25;;;;;;;2.80;1.08;;;21.60;45.20;;;;;;5084206;28;20032;-75
2022/01/31 05:57:51;;;;;;;4.63;1.25;;;21.60;45.20;;;;;;5076500;28;20041;-75
2022/01/31 06:00:17;;;;;;;3.30;1.10;;;21.60;45.20;;;;;;5083540;28;20040;-74
2022/01/31 06:02:42;;;;;;;3.58;1.20;;;21.60;45.20;;;;;;5081388;28;20044;-74
2022/01/31 06:05:08;;;;;;;3.95;1.10;;;21.60;45.20;;;;;;5085208;28;20040;-74
2022/01/31 06:07:34;;;;;;;5.25;1.13;;;21.60;45.20;;;;;;5078902;28;20127;-74
2022/01/31 06:10:00;;;;;;;4.85;1.17;;;21.60;45.20;;;;;;5117035;27;20155;-74
2022/01/31 06:12:26;;;;;;;2.45;1.00;;;21.60;45.20;;;;;;5086376;28;20146;-74
2022/01/31 06:14:51;;;;;;;3.78;1.13;;;21.60;45.20;;;;;;5115105;27;20531;-75
2022/01/31 06:17:17;;;;;;;2.45;1.05;;;21.60;45.30;;;;;;5085593;28;20047;-74
2022/01/31 06:19:42;;;;;;;2.72;1.00;;;21.60;45.20;;;;;;5086302;28;20044;-75
2022/01/31 06:22:08;;;;;;;1.75;0.98;;;21.60;45.20;;;;;;5086235;28;20044;-75
2022/01/31 06:24:33;;;;;;;4.28;1.00;;;21.60;45.20;;;;;;5087657;28;20407;-73
2022/01/31 06:26:59;;;;;;;2.47;1.00;;;21.60;45.20;;;;;;5083275;28;20075;-74
2022/01/31 06:29:26;;;;;;;2.90;1.05;;;21.60;45.30;;;;;;5084828;28;20052;-74
2022/01/31 06:31:52;;;;;;;2.55;1.00;;;21.50;45.30;;;;;;5083384;28;20098;-74
2022/01/31 06:34:18;;;;;;;2.22;1.00;;;21.60;45.30;;;;;;5086731;28;20511;-74
2022/01/31 06:36:44;;;;;;;4.80;1.25;;;21.60;45.30;;;;;;5071687;28;20041;-74
2022/01/31 06:39:10;;;;;;;3.88;1.02;;;21.60;45.30;;;;;;5081829;28;20032;-74
2022/01/31 06:41:36;;;;;;;3.85;1.02;;;21.60;45.30;;;;;;5087649;28;20044;-74
2022/01/31 06:44:02;;;;;;;2.00;0.90;;;21.60;45.40;;;;;;5085546;28;20051;-73
2022/01/31 06:46:27;;;;;;;1.88;0.82;;;21.60;45.40;;;;;;5084074;28;20040;-74
2022/01/31 06:48:53;;;;;;;2.55;0.90;;;21.60;45.40;;;;;;5072369;28;20040;-73
2022/01/31 06:51:19;;;;;;;2.78;1.00;;;21.60;45.40;;;;;;5080234;28;20131;-74
2022/01/31 06:53:48;;;;;;;3.13;1.00;;;21.60;45.40;;;;;;5088226;28;20040;-74
2022/01/31 06:56:15;;;;;;;3.25;1.13;;;21.50;45.30;;;;;;5118518;27;20077;-74
2022/01/31 06:58:41;;;;;;;4.05;1.00;;;21.60;45.50;;;;;;5085089;28;20036;-74
2022/01/31 07:01:06;;;;;;;3.67;1.10;;;21.60;46.20;;;;;;5081634;28;20515;-74
2022/01/31 07:03:36;;;;;;;3.00;0.93;;;21.60;45.40;;;;;;5084561;28;21588;-74
2022/01/31 07:06:02;;;;;;;1.75;0.80;;;21.60;45.40;;;;;;5087372;28;20052;-75
2022/01/31 07:08:27;;;;;;;2.40;0.85;;;21.60;45.40;;;;;;5082004;28;20491;-74
2022/01/31 07:10:53;;;;;;;2.70;0.65;;;21.60;45.40;;;;;;5066926;28;20040;-74
2022/01/31 07:13:37;;;;;;;1.92;0.77;;;21.60;45.40;;;;;;5086460;28;20044;-75
2022/01/31 07:16:05;;;;;;;2.35;0.88;;;21.60;45.40;;;;;;5087376;28;20476;-74
2022/01/31 07:18:32;;;;;;;2.25;1.00;;;21.60;45.50;;;;;;5075341;28;20045;-74
2022/01/31 07:20:58;;;;;;;3.50;1.00;;;21.60;45.40;;;;;;5086157;28;20419;-75
2022/01/31 07:23:28;;;;;;;1.92;0.80;;;21.60;45.40;;;;;;5084181;28;20040;-73
2022/01/31 07:25:55;;;;;;;2.05;0.80;;;21.60;45.50;;;;;;5067095;28;20148;-75
2022/01/31 07:28:20;;;;;;;3.08;0.90;;;21.60;45.50;;;;;;5084350;28;20131;-75
2022/01/31 07:30:48;;;;;;;3.42;0.80;;;21.60;45.50;;;;;;5083020;28;20491;-74
2022/01/31 07:33:14;;;;;;;2.55;0.73;;;21.70;45.50;;;;;;5077968;28;20040;-73
2022/01/31 07:35:41;;;;;;;3.03;0.90;;;21.70;45.60;;;;;;5086933;28;20032;-74
2022/01/31 07:38:07;;;;;;;2.50;0.93;;;21.70;45.50;;;;;;5076989;28;20102;-75
2022/01/31 07:40:32;;;;;;;2.75;1.00;;;21.70;45.50;;;;;;5085380;28;20142;-74
2022/01/31 07:42:58;;;;;;;2.42;0.90;;;21.60;45.50;;;;;;5077709;28;20134;-74
2022/01/31 07:45:23;;;;;;;1.95;0.50;;;21.70;45.60;;;;;;5080270;28;20047;-74
2022/01/31 07:47:49;;;;;;;2.42;0.80;;;21.60;45.60;;;;;;5047767;28;20578;-74
2022/01/31 07:50:15;;;;;;;1.75;0.80;;;21.60;45.60;;;;;;5085926;28;20102;-74
2022/01/31 07:52:41;;;;;;;2.40;0.80;;;21.70;45.70;;;;;;5076679;28;20123;-78
2022/01/31 07:55:07;;;;;;;1.60;0.70;;;21.60;45.60;;;;;;5085777;28;20035;-75
2022/01/31 07:57:34;;;;;;;2.15;0.82;;;21.70;45.70;;;;;;5080369;28;20032;-81
2022/01/31 08:00:02;;;;;;;3.67;0.82;;;21.70;45.60;;;;;;5074351;28;20054;-75
2022/01/31 08:02:28;;;;;;;;;;;21.70;45.70;;;;;;5079944;28;20036;-75
2022/01/31 08:04:55;;;;;;;2.75;0.80;;;21.70;45.70;;;;;;5083644;28;19920;-75
2022/01/31 08:07:21;;;;;;;2.90;0.82;;;21.70;45.80;;;;;;5084802;28;20040;-74
2022/01/31 08:09:47;;;;;;;4.38;0.90;;;21.70;45.80;;;;;;5066112;28;21690;-72
2022/01/31 08:12:13;;;;;;;2.95;0.95;;;21.70;45.90;;;;;;5081955;28;20058;-74
2022/01/31 08:14:38;;;;;;;2.45;0.70;;;21.70;46.10;;;;;;5082913;28;20043;-75
2022/01/31 08:17:04;;;;;;;3.78;0.70;;;21.70;46.20;;;;;;5082158;28;20117;-75
2022/01/31 08:19:30;;;;;;;4.35;1.00;;;21.70;46.20;;;;;;5075220;28;20040;-75
2022/01/31 08:21:55;;;;;;;6.82;1.33;;;21.70;46.20;;;;;;5084288;28;20530;-71
2022/01/31 08:24:21;;;;;;;4.03;1.00;;;21.70;46.40;;;;;;5070178;28;20056;-71
2022/01/31 08:26:47;;;;;;;6.28;0.93;;;21.70;46.50;;;;;;5082559;28;20433;-72
2022/01/31 08:29:21;;;;;;;4.40;0.80;;;21.70;46.50;;;;;;5086260;28;20052;-73
2022/01/31 08:31:48;;;;;;;8.82;1.00;;;21.70;46.60;;;;;;5081346;28;20040;-74
2022/01/31 08:36:42;;;;;;;4.40;0.90;;;21.80;46.40;;;;;;5081991;28;20664;-74
2022/01/31 08:39:18;;;;;;;2.37;0.90;;;21.90;46.50;;;;;;5117614;27;20075;-76
2022/01/31 08:41:46;;;;;;;3.22;0.80;;;21.90;46.60;;;;;;5077563;28;20048;-78
2022/01/31 08:44:14;;;;;;;5.82;0.98;;;21.90;46.60;;;;;;5092950;28;20040;-76
2022/01/31 08:46:40;;;;;;;;;;;21.90;46.70;;;;;;5091568;28;20044;-77
2022/01/31 08:49:10;;;;;;;6.43;1.15;;;21.90;46.80;;;;;;5073639;28;19927;-77
2022/01/31 08:51:37;;;;;;;4.20;0.93;;;21.90;46.80;;;;;;5069830;28;20102;-76
2022/01/31 08:54:05;;;;;;;1.77;0.75;;;21.90;46.90;;;;;;5081792;28;20071;-75
2022/01/31 08:56:35;;;;;;;5.38;0.80;;;21.90;46.90;;;;;;5074337;28;20495;-74
2022/01/31 08:59:03;;;;;;;2.92;1.00;;;21.90;47.00;;;;;;5082631;28;20123;-78
2022/01/31 09:01:28;;;;;;;2.27;0.80;;;21.90;47.20;;;;;;5069119;28;20032;-78
2022/01/31 09:04:00;;;;;;;5.43;1.13;;;21.90;47.30;;;;;;5114101;27;20294;-75
2022/01/31 09:06:29;;;;;;;3.70;0.80;;;21.90;47.50;;;;;;5078458;28;20158;-75
2022/01/31 09:08:55;;;;;;;2.50;0.73;;;21.90;47.60;;;;;;5087380;28;20050;-72
2022/01/31 09:11:20;;;;;;;3.08;0.80;;;21.90;47.70;;;;;;5111374;27;20056;-78
2022/01/31 09:13:46;;;;;;;3.90;0.80;;;21.90;47.80;;;;;;5081868;28;20052;-76
2022/01/31 09:16:12;;;;;;;6.10;0.98;;;21.90;47.80;;;;;;5077526;28;20043;-76
2022/01/31 09:18:37;;;;;;;4.03;0.77;;;21.90;47.90;;;;;;5074984;28;20517;-76
2022/01/31 09:21:04;;;;;;;3.78;0.73;;;21.90;47.90;;;;;;5059822;28;20069;-75
2022/01/31 09:23:30;;;;;;;2.95;0.80;;;22.00;48.10;;;;;;5071443;28;20060;-76
2022/01/31 09:25:57;;;;;;;3.28;1.02;;;22.00;48.10;;;;;;5075615;28;20044;-74
2022/01/31 09:28:23;;;;;;;5.28;1.17;;;22.00;48.20;;;;;;5080117;28;20583;-73
2022/01/31 09:30:49;;;;;;;2.45;1.00;;;22.00;48.20;;;;;;5074733;28;20139;-73
2022/01/31 09:33:15;;;;;;;1.50;0.70;;;22.00;48.40;;;;;;5077906;28;20155;-73
2022/01/31 09:35:42;;;;;;;2.97;0.80;;;22.00;48.40;;;;;;5073718;28;20044;-75
2022/01/31 09:38:12;;;;;;;4.03;0.90;;;22.00;48.40;;;;;;5078326;28;20562;-75
2022/01/31 09:40:38;;;;;;;5.72;1.08;;;22.00;48.40;;;;;;5074627;28;20514;-77
2022/01/31 09:51:16;;;;;;;2.83;0.80;;;22.10;48.40;;;;;;5091663;28;20565;-84
2022/01/31 09:53:47;;;;;;;2.22;0.68;;;22.10;48.40;;;;;;5074160;28;20084;-75
2022/01/31 09:56:16;;;;;;;2.88;0.73;;;22.10;48.60;;;;;;5076319;28;20060;-75
2022/01/31 09:58:42;;;;;;;2.30;0.80;;;22.20;48.80;;;;;;5077947;28;20045;-75
2022/01/31 10:01:14;;;;;;;2.97;0.90;;;22.10;48.80;;;;;;5083298;28;20023;-76
2022/01/31 10:03:58;;;;;;;5.57;0.93;;;22.10;48.80;;;;;;5080538;28;20064;-73
2022/01/31 10:06:34;;;;;;;2.88;0.73;;;22.10;48.90;;;;;;5077641;28;20036;-76
2022/01/31 10:09:05;;;;;;;5.63;0.93;;;22.10;48.80;;;;;;5094731;28;20048;-76
2022/01/31 10:11:39;;;;;;;4.95;1.08;;;22.10;48.80;;;;;;5078941;28;20059;-74
2022/01/31 10:17:00;;;;;;;2.97;0.88;;;22.10;48.80;;;;;;5076882;28;20142;-76
2022/01/31 10:19:25;;;;;;;6.43;1.10;;;22.10;48.70;;;;;;5077584;28;20028;-74
2022/01/31 10:22:02;;;;;;;5.10;0.93;;;22.20;48.80;;;;;;5112156;27;20041;-74
2022/01/31 10:24:30;;;;;;;7.25;1.08;;;22.10;48.80;;;;;;5079139;28;20542;-69
2022/01/31 10:26:56;;;;;;;7.38;1.58;;;22.20;48.80;;;;;;5077750;28;20051;-71
2022/01/31 10:29:23;;;;;;;6.93;1.38;;;22.10;48.60;;;;;;5081965;28;20403;-75
2022/01/31 10:32:01;;;;;;;7.80;1.17;;;22.10;48.60;;;;;;5101054;28;20040;-73
2022/01/31 10:34:28;;;;;;;5.70;1.33;;;22.10;48.70;;;;;;5082437;28;20490;-74
2022/01/31 10:36:53;;;;;;;11.55;2.05;;;22.20;48.90;;;;;;5073098;28;20085;-71
2022/01/31 10:53:41;;;;;;;13.25;1.30;;;22.10;48.40;;;;;;5075004;28;20048;-72
2022/01/31 10:56:06;;;;;;;7.10;1.40;;;22.20;48.40;;;;;;5078609;28;20101;-70
2022/01/31 10:58:32;;;;;;;8.85;1.10;;;22.20;48.40;;;;;;5109876;27;20036;-68
2022/01/31 11:01:12;;;;;;;6.00;1.30;;;22.10;48.30;;;;;;5113839;27;20820;-72
2022/01/31 11:03:38;;;;;;;12.23;1.70;;;22.10;48.30;;;;;;5076419;28;20399;-72
2022/01/31 11:06:10;;;;;;;6.10;0.90;;;22.10;48.40;;;;;;5072603;28;20028;-72
2022/01/31 11:08:37;;;;;;;7.97;1.30;;;22.10;48.50;;;;;;5079985;28;20097;-71
2022/01/31 11:11:03;;;;;;;6.35;1.27;;;22.10;48.40;;;;;;5076344;28;20044;-71
2022/01/31 11:13:32;;;;;;;7.03;1.05;;;22.10;48.40;;;;;;5084309;28;20245;-74
2022/01/31 11:15:58;;;;;;;7.60;1.20;;;22.10;48.40;;;;;;5072820;28;20047;-69
2022/01/31 11:18:25;;;;;;;13.20;1.40;;;22.10;48.30;;;;;;5071994;28;20040;-72
2022/01/31 11:20:57;;;;;;;6.43;1.30;;;22.10;48.20;;;;;;5076794;28;20045;-71
2022/01/31 11:23:26;;;;;;;4.18;1.00;;;22.10;48.10;;;;;;5109929;27;20042;-74
2022/01/31 11:25:56;;;;;;;6.53;1.25;;;22.10;48.00;;;;;;5079572;28;20051;-72
2022/01/31 11:28:23;;;;;;;8.25;1.33;;;22.10;48.00;;;;;;5056663;28;20052;-72
2022/01/31 11:30:51;;;;;;;7.40;1.80;;;22.10;47.90;;;;;;5075957;28;20051;-72
2022/01/31 11:33:18;;;;;;;7.22;1.27;;;22.10;47.90;;;;;;5074716;28;20048;-71
2022/01/31 11:35:44;;;;;;;4.78;1.83;;;22.10;47.80;;;;;;5075697;28;20404;-70
2022/01/31 11:38:10;;;;;;;5.07;1.30;;;22.10;47.80;;;;;;5072661;28;20046;-74
2022/01/31 11:40:36;;;;;;;7.95;1.50;;;22.10;47.70;;;;;;5076999;28;20115;-71
2022/01/31 11:43:03;;;;;;;6.88;1.33;;;22.10;47.60;;;;;;5086869;28;20166;-76
2022/01/31 11:45:32;;;;;;;5.75;1.40;;;22.10;47.60;;;;;;5076212;28;20040;-71
2022/01/31 11:48:03;;;;;;;7.93;1.20;;;22.10;47.50;;;;;;5076236;28;20051;-72
2022/01/31 11:50:29;;;;;;;7.93;1.63;;;22.10;47.40;;;;;;5075848;28;20051;-71
2022/01/31 11:52:58;;;;;;;7.22;1.73;;;22.20;47.40;;;;;;5077115;28;20044;-71
2022/01/31 11:55:29;;;;;;;6.82;1.80;;;22.10;47.10;;;;;;5082763;28;20036;-72
2022/01/31 11:57:57;;;;;;;8.25;2.03;;;22.10;46.90;;;;;;5076747;28;20036;-71
2022/01/31 12:00:27;;;;;;;11.23;2.13;;;22.10;46.80;;;;;;5075270;28;20090;-74
2022/01/31 12:03:01;;;;;;;11.90;1.85;;;22.10;46.70;;;;;;5071233;28;20041;-70
2022/01/31 12:05:30;;;;;;;8.93;1.75;;;22.10;46.70;;;;;;5073358;28;20052;-69
2022/01/31 12:08:16;;;;;;;12.70;1.90;;;22.10;46.80;;;;;;5105348;27;20083;-68
2022/01/31 12:11:02;;;;;;;7.07;1.73;;;22.10;46.90;;;;;;5088861;28;20047;-71
2022/01/31 12:13:41;;;;;;;11.95;2.03;;;22.10;47.00;;;;;;5111056;27;20123;-70
2022/01/31 12:16:46;;;;;;;8.20;2.10;;;22.00;47.00;;;;;;5069165;28;20101;-71
2022/01/31 12:22:05;;;;;;;9.50;1.67;;;22.00;47.50;;;;;;5105268;27;20040;-73
2022/01/31 12:24:41;;;;;;;5.60;1.50;;;22.00;47.60;;;;;;5073081;28;20506;-72
2022/01/31 12:27:26;;;;;;;8.00;2.13;;;22.00;47.90;;;;;;5075053;28;20339;-72
2022/01/31 12:29:57;;;;;;;9.70;2.10;;;22.00;48.00;;;;;;5072311;28;20142;-72
2022/01/31 12:32:38;;;;;;;8.93;2.00;;;21.90;48.10;;;;;;5077117;28;20483;-72
2022/01/31 12:35:07;;;;;;;7.90;1.70;;;22.00;48.30;;;;;;5074150;28;20608;-72
2022/01/31 12:37:50;;;;;;;10.75;1.98;;;21.90;48.30;;;;;;5074001;28;20051;-75
2022/01/31 12:40:19;;;;;;;7.70;1.90;;;22.00;48.40;;;;;;5070936;28;20063;-71
2022/01/31 12:45:32;;;;;;;8.07;2.10;;;22.10;48.00;;;;;;5074256;28;20047;-73
2022/01/31 12:48:14;;;;;;;5.38;1.70;;;22.20;47.80;;;;;;5080266;28;20044;-74
2022/01/31 12:50:52;;;;;;;7.97;2.08;;;22.30;47.80;;;;;;5106181;27;20082;-74
2022/01/31 12:56:24;;;;;;;7.20;1.98;;;22.40;47.60;;;;;;5108153;27;20055;-72
2022/01/31 12:59:01;;;;;;;13.18;1.95;;;22.40;47.50;;;;;;5073347;28;20055;-72
2022/01/31 13:01:34;;;;;;;14.60;2.35;;;22.30;47.30;;;;;;5111130;27;20464;-72
2022/01/31 13:04:12;;;;;;;10.30;2.10;;;22.30;47.10;;;;;;5097045;28;20048;-73
2022/01/31 13:06:45;;;;;;;10.10;2.20;;;22.30;47.10;;;;;;5085648;28;20096;-73
2022/01/31 13:09:26;;;;;;;6.88;1.80;;;22.20;47.10;;;;;;5070263;28;20080;-73
2022/01/31 13:11:58;;;;;;;6.93;1.85;;;22.10;47.00;;;;;;5078201;28;20431;-72
2022/01/31 13:14:29;;;;;;;7.78;1.83;;;22.10;47.20;;;;;;5070612;28;20502;-72
2022/01/31 13:17:18;;;;;;;7.45;1.98;;;22.00;47.10;;;;;;5096427;28;20451;-72
2022/01/31 13:19:48;;;;;;;8.35;1.98;;;22.00;47.20;;;;;;5075216;28;20063;-72
2022/01/31 13:22:26;;;;;;;12.57;2.10;;;21.90;47.30;;;;;;5084387;28;20044;-73
2022/01/31 13:24:57;;;;;;;6.90;1.85;;;21.90;47.30;;;;;;5077985;28;20495;-72
2022/01/31 13:27:32;;;;;;;8.63;1.73;;;21.90;47.30;;;;;;5085747;28;20068;-72